Time,TemperatureF,DewpointF,PressureIn,WindDirection,WindDirectionDegrees,WindSpeedMPH,WindSpeedGustMPH,Humidity,HourlyPrecipIn,Conditions,Clouds,dailyrainin,SoftwareType,DateUTC
2013-01-11 00:02:00,31.5,30.2,29.84,SSE,158,0.0,0.0,95,0.00,RA,,0.00,WeatherDisplay:10.37,2013-01-11 08:02:00,
2013-01-11 00:07:00,31.6,30.6,29.84,SSE,158,0.0,0.0,96,0.00,RA,,0.00,WeatherDisplay:10.37,2013-01-11 08:07:00,
2013-01-11 00:12:00,31.5,30.5,29.84,SSE,158,0.0,0.0,96,0.00,CLR,,0.00,WeatherDisplay:10.37,2013-01-11 08:12:00,
2013-01-11 00:17:00,31.3,30.0,29.84,SSE,158,0.0,0.0,95,0.00,CLR,,0.00,WeatherDisplay:10.37,2013-01-11 08:17:00,
2013-01-11 00:22:00,31.3,30.3,29.84,SSE,158,0.0,0.0,96,0.00,CLR,,0.00,WeatherDisplay:10.37,2013-01-11 08:22:00,
2013-01-11 00:27:00,31.1,30.1,29.84,SSE,158,0.0,0.0,96,0.00,CLR,,0.00,WeatherDisplay:10.37,2013-01-11 08:27:00,
2013-01-11 00:32:00,31.1,30.1,29.84,SSE,158,0.0,0.0,96,0.00,CLR,,0.00,WeatherDisplay:10.37,2013-01-11 08:32:00,
2013-01-11 00:37:00,30.9,29.9,29.84,SSE,158,0.0,0.0,96,0.00,CLR,,0.00,WeatherDisplay:10.37,2013-01-11 08:37:00,
2013-01-11 00:42:00,30.6,29.6,29.84,SSE,158,0.0,0.0,96,0.00,CLR,,0.00,WeatherDisplay:10.37,2013-01-11 08:42:00,
2013-01-11 00:47:00,30.6,29.6,29.84,SSE,158,0.0,0.0,96,0.00,CLR,,0.00,WeatherDisplay:10.37,2013-01-11 08:47:00,
2013-01-11 00:52:00,30.4,29.4,29.84,SSE,158,0.0,0.0,96,0.00,CLR,,0.00,WeatherDisplay:10.37,2013-01-11 08:52:00,
2013-01-11 00:57:00,30.2,29.2,29.85,SSE,158,0.0,0.0,96,0.00,CLR,,0.00,WeatherDisplay:10.37,2013-01-11 08:57:00,
2013-01-11 01:02:00,30.0,29.0,29.84,SSE,158,0.0,0.0,96,0.00,CLR,,0.00,WeatherDisplay:10.37,2013-01-11 09:02:00,
2013-01-11 01:07:00,30.0,29.0,29.85,SSE,158,0.0,0.0,96,0.00,CLR,,0.00,WeatherDisplay:10.37,2013-01-11 09:07:00,
2013-01-11 01:12:00,29.8,28.8,29.85,SSE,158,0.0,0.0,96,0.00,CLR,,0.00,WeatherDisplay:10.37,2013-01-11 09:12:00,
2013-01-11 01:17:00,29.5,28.5,29.85,SSE,158,0.0,0.0,96,0.00,CLR,,0.00,WeatherDisplay:10.37,2013-01-11 09:17:00,
2013-01-11 01:22:00,29.3,28.3,29.84,SSE,158,0.0,0.0,96,0.00,CLR,,0.00,WeatherDisplay:10.37,2013-01-11 09:22:00,
2013-01-11 01:27:00,29.1,28.1,29.85,SSE,158,0.0,0.0,96,0.00,CLR,,0.00,WeatherDisplay:10.37,2013-01-11 09:27:00,
2013-01-11 01:32:00,28.9,27.9,29.85,SSE,158,0.0,0.0,96,0.00,CLR,,0.00,WeatherDisplay:10.37,2013-01-11 09:32:00,
2013-01-11 01:37:00,28.9,27.9,29.85,SSE,158,0.0,0.0,96,0.00,CLR,,0.00,WeatherDisplay:10.37,2013-01-11 09:37:00,
2013-01-11 01:42:00,28.8,27.8,29.85,SSE,158,0.0,0.0,96,0.00,CLR,,0.00,WeatherDisplay:10.37,2013-01-11 09:42:00,
2013-01-11 01:47:00,28.6,27.6,29.85,SSE,158,0.0,0.0,96,0.00,CLR,,0.00,WeatherDisplay:10.37,2013-01-11 09:47:00,
2013-01-11 01:52:00,28.6,27.6,29.86,SSE,158,0.0,0.0,96,0.00,CLR,,0.00,WeatherDisplay:10.37,2013-01-11 09:52:00,
2013-01-11 01:57:00,28.6,27.6,29.86,SSE,158,0.0,0.0,96,0.00,CLR,,0.00,WeatherDisplay:10.37,2013-01-11 09:57:00,
2013-01-11 02:02:00,28.6,27.6,29.86,SSE,158,0.0,0.0,96,0.00,CLR,,0.00,WeatherDisplay:10.37,2013-01-11 10:02:00,
2013-01-11 02:07:00,28.2,27.2,29.86,SSE,158,0.0,0.0,96,0.00,CLR,,0.00,WeatherDisplay:10.37,2013-01-11 10:07:00,
2013-01-11 02:12:00,28.2,27.2,29.86,SSE,158,0.0,0.0,96,0.00,CLR,,0.00,WeatherDisplay:10.37,2013-01-11 10:12:00,
2013-01-11 02:17:00,28.2,27.2,29.86,SSE,158,0.0,0.0,96,0.00,CLR,,0.00,WeatherDisplay:10.37,2013-01-11 10:17:00,
2013-01-11 02:22:00,28.2,27.0,29.86,SSE,158,0.0,0.0,95,0.00,CLR,,0.00,WeatherDisplay:10.37,2013-01-11 10:22:00,
2013-01-11 02:27:00,28.0,26.8,29.86,SSE,158,0.0,0.0,95,0.00,CLR,,0.00,WeatherDisplay:10.37,2013-01-11 10:27:00,
2013-01-11 02:32:00,27.7,26.4,29.87,SSE,158,0.0,0.0,95,0.00,CLR,,0.00,WeatherDisplay:10.37,2013-01-11 10:32:00,
2013-01-11 02:37:00,27.7,26.4,29.86,SSE,158,0.0,0.0,95,0.00,CLR,,0.00,WeatherDisplay:10.37,2013-01-11 10:37:00,
2013-01-11 02:42:00,27.5,26.3,29.86,SSE,158,0.0,0.0,95,0.00,CLR,,0.00,WeatherDisplay:10.37,2013-01-11 10:42:00,
2013-01-11 02:47:00,27.5,26.3,29.86,SSE,158,0.0,0.0,95,0.00,CLR,,0.00,WeatherDisplay:10.37,2013-01-11 10:47:00,
2013-01-11 02:52:00,27.3,26.1,29.87,SSE,158,0.0,0.0,95,0.00,CLR,,0.00,WeatherDisplay:10.37,2013-01-11 10:52:00,
2013-01-11 02:57:00,27.3,26.3,29.87,SSE,158,0.0,0.0,96,0.00,CLR,,0.00,WeatherDisplay:10.37,2013-01-11 10:57:00,
2013-01-11 03:02:00,27.5,26.5,29.87,SSE,158,0.0,0.0,96,0.00,CLR,,0.00,WeatherDisplay:10.37,2013-01-11 11:02:00,
2013-01-11 03:07:00,27.5,26.5,29.87,SSE,158,0.0,0.0,96,0.00,CLR,,0.00,WeatherDisplay:10.37,2013-01-11 11:07:00,
2013-01-11 03:12:00,27.5,26.5,29.87,SSE,158,0.0,0.0,96,0.00,CLR,,0.00,WeatherDisplay:10.37,2013-01-11 11:12:00,
2013-01-11 03:17:00,27.5,26.5,29.87,SSE,158,0.0,0.0,96,0.00,CLR,,0.00,WeatherDisplay:10.37,2013-01-11 11:17:00,
2013-01-11 03:22:00,27.3,26.3,29.87,SSE,158,0.0,0.0,96,0.00,CLR,,0.00,WeatherDisplay:10.37,2013-01-11 11:22:00,
2013-01-11 03:27:00,27.3,26.3,29.87,SSE,158,0.0,0.0,96,0.00,CLR,,0.00,WeatherDisplay:10.37,2013-01-11 11:27:00,
2013-01-11 03:32:00,27.1,26.2,29.86,SSE,158,0.0,0.0,96,0.00,CLR,,0.00,WeatherDisplay:10.37,2013-01-11 11:32:00,
2013-01-11 03:37:00,27.1,26.2,29.87,SSE,158,0.0,0.0,96,0.00,CLR,,0.00,WeatherDisplay:10.37,2013-01-11 11:37:00,
2013-01-11 03:42:00,27.0,26.0,29.87,SSE,158,0.0,0.0,96,0.00,CLR,,0.00,WeatherDisplay:10.37,2013-01-11 11:42:00,
2013-01-11 03:47:00,27.0,26.0,29.87,SSE,158,0.0,0.0,96,0.00,CLR,,0.00,WeatherDisplay:10.37,2013-01-11 11:47:00,
2013-01-11 03:52:00,27.0,26.0,29.88,SSE,158,0.0,0.0,96,0.00,CLR,,0.00,WeatherDisplay:10.37,2013-01-11 11:52:00,
2013-01-11 03:57:00,27.0,26.0,29.88,SSE,158,0.0,0.0,96,0.00,CLR,,0.00,WeatherDisplay:10.37,2013-01-11 11:57:00,
2013-01-11 04:02:00,27.1,26.2,29.88,SSE,158,0.0,0.0,96,0.00,CLR,,0.00,WeatherDisplay:10.37,2013-01-11 12:02:00,
2013-01-11 04:07:00,27.1,26.2,29.88,SSE,158,0.0,0.0,96,0.00,CLR,,0.00,WeatherDisplay:10.37,2013-01-11 12:07:00,
2013-01-11 04:12:00,27.1,26.2,29.88,SSE,158,0.0,0.0,96,0.00,CLR,,0.00,WeatherDisplay:10.37,2013-01-11 12:12:00,
2013-01-11 04:17:00,27.1,26.2,29.88,SSE,158,0.0,0.0,96,0.00,CLR,,0.00,WeatherDisplay:10.37,2013-01-11 12:17:00,
2013-01-11 04:22:00,27.1,26.2,29.88,SSE,158,0.0,0.0,96,0.00,CLR,,0.00,WeatherDisplay:10.37,2013-01-11 12:22:00,
2013-01-11 04:27:00,27.1,26.2,29.88,SSE,158,0.0,0.0,96,0.00,CLR,,0.00,WeatherDisplay:10.37,2013-01-11 12:27:00,
2013-01-11 04:32:00,27.1,26.2,29.88,SSE,158,0.0,0.0,96,0.00,CLR,,0.00,WeatherDisplay:10.37,2013-01-11 12:32:00,
2013-01-11 04:37:00,27.1,26.2,29.89,SSE,158,0.0,0.0,96,0.00,CLR,,0.00,WeatherDisplay:10.37,2013-01-11 12:37:00,
2013-01-11 04:42:00,27.0,26.0,29.89,SSE,158,0.0,0.0,96,0.00,CLR,,0.00,WeatherDisplay:10.37,2013-01-11 12:42:00,
2013-01-11 04:47:00,27.0,26.0,29.89,SSE,158,0.0,0.0,96,0.00,CLR,,0.00,WeatherDisplay:10.37,2013-01-11 12:47:00,
2013-01-11 04:52:00,27.0,26.0,29.89,SSE,158,0.0,0.0,96,0.00,CLR,,0.00,WeatherDisplay:10.37,2013-01-11 12:52:00,
2013-01-11 04:57:00,27.0,26.0,29.89,SSE,158,0.0,0.0,96,0.00,CLR,,0.00,WeatherDisplay:10.37,2013-01-11 12:57:00,
2013-01-11 05:02:00,26.8,25.8,29.89,SSE,158,0.0,0.0,96,0.00,CLR,,0.00,WeatherDisplay:10.37,2013-01-11 13:02:00,
2013-01-11 05:07:00,26.8,25.8,29.89,SSE,158,0.0,0.0,96,0.00,CLR,,0.00,WeatherDisplay:10.37,2013-01-11 13:07:00,
2013-01-11 05:12:00,26.6,25.6,29.89,SSE,158,0.0,0.0,96,0.00,CLR,,0.00,WeatherDisplay:10.37,2013-01-11 13:12:00,
2013-01-11 05:17:00,26.6,25.6,29.90,SSE,158,0.0,0.0,96,0.00,CLR,,0.00,WeatherDisplay:10.37,2013-01-11 13:17:00,
2013-01-11 05:22:00,26.8,25.8,29.90,SSE,158,0.0,0.0,96,0.00,CLR,,0.00,WeatherDisplay:10.37,2013-01-11 13:22:00,
2013-01-11 05:27:00,26.8,25.8,29.90,SSE,158,0.0,0.0,96,0.00,CLR,,0.00,WeatherDisplay:10.37,2013-01-11 13:27:00,
2013-01-11 05:32:00,26.8,25.8,29.90,SSE,158,0.0,0.0,96,0.00,CLR,,0.00,WeatherDisplay:10.37,2013-01-11 13:32:00,
2013-01-11 05:37:00,26.8,25.8,29.90,SSE,158,0.0,0.0,96,0.00,CLR,,0.00,WeatherDisplay:10.37,2013-01-11 13:37:00,
2013-01-11 05:42:00,26.8,25.8,29.90,SSE,158,0.0,0.0,96,0.00,CLR,,0.00,WeatherDisplay:10.37,2013-01-11 13:42:00,
2013-01-11 05:47:00,27.0,26.0,29.90,SSE,158,0.0,0.0,96,0.00,CLR,,0.00,WeatherDisplay:10.37,2013-01-11 13:47:00,
2013-01-11 05:52:00,27.0,26.0,29.91,SSE,158,0.0,0.0,96,0.00,CLR,,0.00,WeatherDisplay:10.37,2013-01-11 13:52:00,
2013-01-11 05:57:00,27.0,26.0,29.91,SSE,158,0.0,0.0,96,0.00,CLR,,0.00,WeatherDisplay:10.37,2013-01-11 13:57:00,
2013-01-11 06:02:00,27.1,26.2,29.91,SSE,158,0.0,0.0,96,0.00,CLR,,0.00,WeatherDisplay:10.37,2013-01-11 14:02:00,
2013-01-11 06:07:00,27.1,26.2,29.91,SSE,158,0.0,0.0,96,0.00,CLR,,0.00,WeatherDisplay:10.37,2013-01-11 14:07:00,
2013-01-11 06:12:00,27.1,26.2,29.92,SSE,158,0.0,0.0,96,0.00,CLR,,0.00,WeatherDisplay:10.37,2013-01-11 14:12:00,
2013-01-11 06:17:00,27.3,26.3,29.92,SSE,158,0.0,0.0,96,0.00,CLR,,0.00,WeatherDisplay:10.37,2013-01-11 14:17:00,
2013-01-11 06:22:00,27.3,26.3,29.92,SSE,158,0.0,0.0,96,0.00,CLR,,0.00,WeatherDisplay:10.37,2013-01-11 14:22:00,
2013-01-11 06:27:00,27.5,26.5,29.92,SSE,158,0.0,0.0,96,0.00,CLR,,0.00,WeatherDisplay:10.37,2013-01-11 14:27:00,
2013-01-11 06:32:00,27.7,26.7,29.92,SSE,158,0.0,0.0,96,0.00,CLR,,0.00,WeatherDisplay:10.37,2013-01-11 14:32:00,
2013-01-11 06:37:00,27.7,26.7,29.93,SSE,158,0.0,0.0,96,0.00,CLR,,0.00,WeatherDisplay:10.37,2013-01-11 14:37:00,
2013-01-11 06:42:00,27.7,26.7,29.93,SSE,158,0.0,0.0,96,0.00,CLR,,0.00,WeatherDisplay:10.37,2013-01-11 14:42:00,
2013-01-11 06:47:00,27.7,26.7,29.93,SSE,158,0.0,0.0,96,0.00,CLR,,0.00,WeatherDisplay:10.37,2013-01-11 14:47:00,
2013-01-11 06:52:00,27.7,26.7,29.93,SSE,158,0.0,0.0,96,0.00,CLR,,0.00,WeatherDisplay:10.37,2013-01-11 14:52:00,
2013-01-11 06:57:00,27.7,26.7,29.93,SSE,158,0.0,0.0,96,0.00,CLR,,0.00,WeatherDisplay:10.37,2013-01-11 14:57:00,
2013-01-11 07:02:00,27.3,26.3,29.93,SSE,158,0.0,0.0,96,0.00,CLR,,0.00,WeatherDisplay:10.37,2013-01-11 15:02:00,
2013-01-11 07:07:00,27.3,26.3,29.94,SSE,158,0.0,0.0,96,0.00,CLR,,0.00,WeatherDisplay:10.37,2013-01-11 15:07:00,
2013-01-11 07:12:00,27.1,26.2,29.94,SSE,158,0.0,0.0,96,0.00,CLR,,0.00,WeatherDisplay:10.37,2013-01-11 15:12:00,
2013-01-11 07:17:00,27.0,26.0,29.95,SSE,158,0.0,0.0,96,0.00,CLR,,0.00,WeatherDisplay:10.37,2013-01-11 15:17:00,
2013-01-11 07:22:00,26.8,25.8,29.94,SSE,158,0.0,0.0,96,0.00,CLR,,0.00,WeatherDisplay:10.37,2013-01-11 15:22:00,
2013-01-11 07:27:00,26.6,25.6,29.95,SSE,158,0.0,0.0,96,0.00,CLR,,0.00,WeatherDisplay:10.37,2013-01-11 15:27:00,
2013-01-11 07:32:00,26.4,25.4,29.96,SSE,158,0.0,0.0,96,0.00,CLR,,0.00,WeatherDisplay:10.37,2013-01-11 15:32:00,
2013-01-11 07:37:00,26.4,25.4,29.96,SSE,158,0.0,0.0,96,0.00,CLR,,0.00,WeatherDisplay:10.37,2013-01-11 15:37:00,
2013-01-11 07:42:00,26.4,25.4,29.96,SSE,158,0.0,0.0,96,0.00,CLR,,0.00,WeatherDisplay:10.37,2013-01-11 15:42:00,
2013-01-11 07:47:00,26.2,25.3,29.96,SSE,158,0.0,0.0,96,0.00,CLR,,0.00,WeatherDisplay:10.37,2013-01-11 15:47:00,
2013-01-11 07:52:00,26.1,25.1,29.97,SSE,158,0.0,0.0,96,0.00,CLR,,0.00,WeatherDisplay:10.37,2013-01-11 15:52:00,
2013-01-11 07:57:00,25.9,24.9,29.96,SSE,158,0.0,0.0,96,0.00,CLR,,0.00,WeatherDisplay:10.37,2013-01-11 15:57:00,
2013-01-11 08:02:00,25.9,24.9,29.97,SSE,158,0.0,0.0,96,0.00,CLR,,0.00,WeatherDisplay:10.37,2013-01-11 16:02:00,
2013-01-11 08:07:00,25.7,24.7,29.97,SSE,158,0.0,0.0,96,0.00,CLR,,0.00,WeatherDisplay:10.37,2013-01-11 16:07:00,
2013-01-11 08:12:00,25.7,24.7,29.97,SSE,158,0.0,0.0,96,0.00,CLR,,0.00,WeatherDisplay:10.37,2013-01-11 16:12:00,
2013-01-11 08:17:00,25.5,24.5,29.97,SSE,158,0.0,0.0,96,0.00,CLR,,0.00,WeatherDisplay:10.37,2013-01-11 16:17:00,
2013-01-11 08:22:00,25.5,24.5,29.97,SSE,158,0.0,0.0,96,0.00,CLR,,0.00,WeatherDisplay:10.37,2013-01-11 16:22:00,
2013-01-11 08:27:00,25.5,24.5,29.97,SSE,158,0.0,0.0,96,0.00,CLR,,0.00,WeatherDisplay:10.37,2013-01-11 16:27:00,
2013-01-11 08:32:00,25.5,24.5,29.98,SSE,158,0.0,0.0,96,0.00,CLR,,0.00,WeatherDisplay:10.37,2013-01-11 16:32:00,
2013-01-11 08:37:00,25.3,24.4,29.98,SSE,158,0.0,0.0,96,0.00,CLR,,0.00,WeatherDisplay:10.37,2013-01-11 16:37:00,
2013-01-11 08:42:00,25.5,24.5,29.98,SSE,158,0.0,0.0,96,0.00,CLR,,0.00,WeatherDisplay:10.37,2013-01-11 16:42:00,
2013-01-11 08:47:00,25.3,24.4,29.98,SSE,158,0.0,0.0,96,0.00,CLR,,0.00,WeatherDisplay:10.37,2013-01-11 16:47:00,
2013-01-11 08:52:00,25.3,24.4,29.98,SSE,158,0.0,0.0,96,0.00,CLR,,0.00,WeatherDisplay:10.37,2013-01-11 16:52:00,
2013-01-11 08:57:00,25.5,24.5,29.98,SSE,158,0.0,0.0,96,0.00,CLR,,0.00,WeatherDisplay:10.37,2013-01-11 16:57:00,
2013-01-11 09:02:00,25.5,24.5,29.98,SSE,158,0.0,0.0,96,0.00,CLR,,0.00,WeatherDisplay:10.37,2013-01-11 17:02:00,
2013-01-11 09:07:00,25.5,24.5,29.99,SSE,158,0.0,0.0,96,0.00,CLR,,0.00,WeatherDisplay:10.37,2013-01-11 17:07:00,
2013-01-11 09:12:00,25.5,24.5,30.00,SSE,158,0.0,0.0,96,0.00,CLR,,0.00,WeatherDisplay:10.37,2013-01-11 17:12:00,
2013-01-11 09:17:00,25.7,24.7,29.99,SSE,158,0.0,0.0,96,0.00,CLR,,0.00,WeatherDisplay:10.37,2013-01-11 17:17:00,
2013-01-11 09:22:00,25.9,24.9,29.99,SSE,158,0.0,0.0,96,0.00,CLR,,0.00,WeatherDisplay:10.37,2013-01-11 17:22:00,
2013-01-11 09:27:00,26.1,25.1,30.00,SSE,158,0.0,0.0,96,0.00,CLR,,0.00,WeatherDisplay:10.37,2013-01-11 17:27:00,
2013-01-11 09:32:00,26.2,25.3,30.00,SSE,158,0.0,0.0,96,0.00,CLR,,0.00,WeatherDisplay:10.37,2013-01-11 17:32:00,
2013-01-11 09:37:00,26.4,25.4,30.00,SSE,158,0.0,0.0,96,0.00,CLR,,0.00,WeatherDisplay:10.37,2013-01-11 17:37:00,
2013-01-11 09:42:00,26.8,25.8,30.00,SSE,158,0.0,0.0,96,0.00,CLR,,0.00,WeatherDisplay:10.37,2013-01-11 17:42:00,
2013-01-11 09:47:00,26.8,25.8,30.00,SSE,158,0.0,0.0,96,0.00,CLR,,0.00,WeatherDisplay:10.37,2013-01-11 17:47:00,
2013-01-11 09:52:00,27.1,26.2,30.00,SSE,158,0.0,0.0,96,0.00,CLR,,0.00,WeatherDisplay:10.37,2013-01-11 17:52:00,
2013-01-11 09:57:00,27.5,26.5,30.01,SSE,158,0.0,0.0,96,0.00,CLR,,0.00,WeatherDisplay:10.37,2013-01-11 17:57:00,
2013-01-11 10:02:00,27.7,26.7,30.00,SSE,158,0.0,0.0,96,0.00,CLR,,0.00,WeatherDisplay:10.37,2013-01-11 18:02:00,
2013-01-11 10:07:00,28.0,27.0,30.00,SSE,158,0.0,0.0,96,0.00,CLR,,0.00,WeatherDisplay:10.37,2013-01-11 18:07:00,
2013-01-11 10:12:00,28.2,27.2,30.01,SSE,158,0.0,0.0,96,0.00,CLR,,0.00,WeatherDisplay:10.37,2013-01-11 18:12:00,
2013-01-11 10:17:00,28.6,27.6,30.01,SSE,158,0.0,0.0,96,0.00,CLR,,0.00,WeatherDisplay:10.37,2013-01-11 18:17:00,
2013-01-11 10:22:00,28.9,27.9,30.01,SSE,158,0.0,0.0,96,0.00,CLR,,0.00,WeatherDisplay:10.37,2013-01-11 18:22:00,
2013-01-11 10:27:00,29.1,28.1,30.01,South,180,0.0,0.0,96,0.00,CLR,,0.00,WeatherDisplay:10.37,2013-01-11 18:27:00,
2013-01-11 10:32:00,29.5,28.5,30.01,South,180,0.0,0.0,96,0.00,CLR,,0.00,WeatherDisplay:10.37,2013-01-11 18:32:00,
2013-01-11 10:37:00,30.0,29.0,30.01,SW,225,0.0,0.0,96,0.00,CLR,,0.00,WeatherDisplay:10.37,2013-01-11 18:37:00,
2013-01-11 10:42:00,30.2,29.2,30.01,SW,225,0.0,0.0,96,0.00,CLR,,0.00,WeatherDisplay:10.37,2013-01-11 18:42:00,
2013-01-11 10:47:00,30.6,29.6,30.01,West,270,0.0,0.0,96,0.00,CLR,,0.00,WeatherDisplay:10.37,2013-01-11 18:47:00,
2013-01-11 10:52:00,30.4,29.4,30.01,West,270,0.0,0.0,96,0.00,CLR,,0.00,WeatherDisplay:10.37,2013-01-11 18:52:00,
2013-01-11 10:57:00,30.4,29.4,30.01,West,270,0.0,0.0,96,0.00,CLR,,0.00,WeatherDisplay:10.37,2013-01-11 18:57:00,
2013-01-11 11:02:00,30.6,29.6,30.01,West,270,0.0,0.0,96,0.00,CLR,,0.00,WeatherDisplay:10.37,2013-01-11 19:02:00,
2013-01-11 11:07:00,30.9,29.9,30.01,WNW,292,2.3,2.3,96,0.00,CLR,,0.00,WeatherDisplay:10.37,2013-01-11 19:07:00,
2013-01-11 11:12:00,31.1,30.1,30.01,WNW,292,0.0,0.0,96,0.00,CLR,,0.00,WeatherDisplay:10.37,2013-01-11 19:12:00,
2013-01-11 11:17:00,31.3,30.3,30.01,NNE,22,3.5,3.5,96,0.00,CLR,,0.00,WeatherDisplay:10.37,2013-01-11 19:17:00,
2013-01-11 11:22:00,31.1,30.1,30.01,NNE,22,0.0,0.0,96,0.00,CLR,,0.00,WeatherDisplay:10.37,2013-01-11 19:22:00,
2013-01-11 11:27:00,30.9,29.9,30.01,NNE,22,0.0,0.0,96,0.00,CLR,,0.00,WeatherDisplay:10.37,2013-01-11 19:27:00,
2013-01-11 11:32:00,30.9,29.9,30.02,NNE,22,0.0,0.0,96,0.00,CLR,,0.00,WeatherDisplay:10.37,2013-01-11 19:32:00,
2013-01-11 11:37:00,31.3,30.3,30.01,NNE,22,0.0,0.0,96,0.00,CLR,,0.00,WeatherDisplay:10.37,2013-01-11 19:37:00,
2013-01-11 11:42:00,31.6,30.6,30.01,NNE,22,0.0,0.0,96,0.00,CLR,,0.00,WeatherDisplay:10.37,2013-01-11 19:42:00,
2013-01-11 11:47:00,31.8,30.8,30.01,North,0,0.0,0.0,96,0.00,CLR,,0.00,WeatherDisplay:10.37,2013-01-11 19:47:00,
2013-01-11 11:53:00,32.5,31.5,30.01,West,270,0.0,0.0,96,0.00,CLR,,0.00,WeatherDisplay:10.37,2013-01-11 19:53:00,
2013-01-11 11:58:00,33.1,32.1,30.01,West,270,0.0,0.0,96,0.00,CLR,,0.00,WeatherDisplay:10.37,2013-01-11 19:58:00,
2013-01-11 12:03:00,33.3,32.2,30.01,West,270,0.0,0.0,96,0.00,CLR,,0.00,WeatherDisplay:10.37,2013-01-11 20:03:00,
2013-01-11 12:08:00,33.4,32.2,30.01,West,270,0.0,0.0,95,0.00,CLR,,0.00,WeatherDisplay:10.37,2013-01-11 20:08:00,
2013-01-11 12:13:00,33.8,32.5,30.01,SW,225,0.0,0.0,95,0.00,CLR,,0.00,WeatherDisplay:10.37,2013-01-11 20:13:00,
2013-01-11 12:18:00,34.2,32.9,30.01,SW,225,0.0,0.0,95,0.00,CLR,,0.00,WeatherDisplay:10.37,2013-01-11 20:18:00,
2013-01-11 12:23:00,34.3,33.1,30.01,SW,225,0.0,0.0,95,0.00,CLR,,0.00,WeatherDisplay:10.37,2013-01-11 20:23:00,
2013-01-11 12:28:00,34.3,32.8,30.02,WSW,248,1.1,1.1,94,0.00,CLR,,0.00,WeatherDisplay:10.37,2013-01-11 20:28:00,
2013-01-11 12:33:00,34.3,32.5,30.01,West,270,0.0,0.0,93,0.00,CLR,,0.00,WeatherDisplay:10.37,2013-01-11 20:33:00,
2013-01-11 12:38:00,34.3,32.5,30.01,West,270,0.0,0.0,93,0.00,CLR,,0.00,WeatherDisplay:10.37,2013-01-11 20:38:00,
2013-01-11 12:43:00,34.3,32.3,30.01,West,270,0.0,0.0,92,0.00,CLR,,0.00,WeatherDisplay:10.37,2013-01-11 20:43:00,
2013-01-11 12:48:00,34.3,32.3,30.02,West,270,1.2,1.3,92,0.00,CLR,,0.00,WeatherDisplay:10.37,2013-01-11 20:48:00,
2013-01-11 12:53:00,34.3,32.0,30.01,West,270,0.0,0.0,91,0.00,CLR,,0.00,WeatherDisplay:10.37,2013-01-11 20:53:00,
2013-01-11 12:58:00,34.9,32.5,30.02,WSW,248,1.2,1.2,91,0.00,CLR,,0.00,WeatherDisplay:10.37,2013-01-11 20:58:00,
2013-01-11 13:03:00,35.2,32.9,30.01,WSW,248,0.0,0.0,91,0.00,CLR,,0.00,WeatherDisplay:10.37,2013-01-11 21:03:00,
2013-01-11 13:08:00,35.2,32.6,30.01,WSW,248,0.0,0.0,90,0.00,CLR,,0.00,WeatherDisplay:10.37,2013-01-11 21:08:00,
2013-01-11 13:13:00,35.4,32.8,30.01,SW,225,0.0,0.0,90,0.00,CLR,,0.00,WeatherDisplay:10.37,2013-01-11 21:13:00,
2013-01-11 13:18:00,35.8,33.1,30.02,West,270,0.0,0.0,90,0.00,CLR,,0.00,WeatherDisplay:10.37,2013-01-11 21:18:00,
2013-01-11 13:23:00,35.8,33.1,30.02,West,270,4.7,4.7,90,0.00,CLR,,0.00,WeatherDisplay:10.37,2013-01-11 21:23:00,
2013-01-11 13:29:00,36.1,33.2,30.02,West,270,0.0,0.0,89,0.00,CLR,,0.00,WeatherDisplay:10.37,2013-01-11 21:29:00,
2013-01-11 13:34:00,36.1,33.2,30.02,West,270,0.0,0.0,89,0.00,CLR,,0.00,WeatherDisplay:10.37,2013-01-11 21:34:00,
2013-01-11 13:39:00,36.3,33.1,30.02,West,270,0.0,0.0,88,0.00,CLR,,0.00,WeatherDisplay:10.37,2013-01-11 21:39:00,
2013-01-11 13:44:00,36.1,32.9,30.03,West,270,0.0,0.0,88,0.00,CLR,,0.00,WeatherDisplay:10.37,2013-01-11 21:44:00,
2013-01-11 13:49:00,36.1,32.9,30.03,SSE,158,0.0,0.0,88,0.00,CLR,,0.00,WeatherDisplay:10.37,2013-01-11 21:49:00,
2013-01-11 13:54:00,36.1,32.6,30.03,ENE,68,0.0,0.0,87,0.00,CLR,,0.00,WeatherDisplay:10.37,2013-01-11 21:54:00,
2013-01-11 13:59:00,36.1,32.4,30.03,ENE,68,0.0,0.0,86,0.00,CLR,,0.00,WeatherDisplay:10.37,2013-01-11 21:59:00,
2013-01-11 14:04:00,36.0,31.9,30.03,ENE,68,0.0,0.0,85,0.00,CLR,,0.00,WeatherDisplay:10.37,2013-01-11 22:04:00,
2013-01-11 14:09:00,36.0,31.9,30.03,ENE,68,0.0,0.0,85,0.00,CLR,,0.00,WeatherDisplay:10.37,2013-01-11 22:09:00,
2013-01-11 14:14:00,36.1,31.8,30.03,West,270,1.2,1.2,84,0.00,CLR,,0.00,WeatherDisplay:10.37,2013-01-11 22:14:00,
2013-01-11 14:19:00,36.1,31.5,30.03,NNW,338,0.0,0.0,83,0.00,CLR,,0.00,WeatherDisplay:10.37,2013-01-11 22:19:00,
2013-01-11 14:24:00,36.1,31.5,30.03,NW,315,0.4,0.4,83,0.00,CLR,,0.00,WeatherDisplay:10.37,2013-01-11 22:24:00,
2013-01-11 14:29:00,36.1,31.5,30.03,WNW,292,0.0,0.0,83,0.00,CLR,,0.00,WeatherDisplay:10.37,2013-01-11 22:29:00,
2013-01-11 14:34:00,36.1,31.2,30.03,West,270,0.0,0.0,82,0.00,CLR,,0.00,WeatherDisplay:10.37,2013-01-11 22:34:00,
2013-01-11 14:39:00,36.1,31.2,30.03,West,270,0.0,0.0,82,0.00,CLR,,0.00,WeatherDisplay:10.37,2013-01-11 22:39:00,
2013-01-11 14:44:00,36.3,31.7,30.03,West,270,0.0,0.0,83,0.00,CLR,,0.00,WeatherDisplay:10.37,2013-01-11 22:44:00,
2013-01-11 14:49:00,36.3,31.9,30.03,West,270,0.0,0.0,84,0.00,CLR,,0.00,WeatherDisplay:10.37,2013-01-11 22:49:00,
2013-01-11 14:54:00,36.7,32.0,30.03,SSE,158,1.2,1.2,83,0.00,CLR,,0.00,WeatherDisplay:10.37,2013-01-11 22:54:00,
2013-01-11 14:59:00,36.7,32.0,30.03,SSE,158,2.5,2.5,83,0.00,CLR,,0.00,WeatherDisplay:10.37,2013-01-11 22:59:00,
2013-01-11 15:04:00,36.5,32.1,30.03,SSE,158,0.0,0.0,84,0.00,CLR,,0.00,WeatherDisplay:10.37,2013-01-11 23:04:00,
2013-01-11 15:09:00,35.8,31.4,30.04,SSE,158,0.0,0.0,84,0.00,CLR,,0.00,WeatherDisplay:10.37,2013-01-11 23:09:00,
2013-01-11 15:14:00,35.6,31.5,30.03,SSE,158,0.0,0.0,85,0.00,CLR,,0.00,WeatherDisplay:10.37,2013-01-11 23:14:00,
2013-01-11 15:19:00,35.2,31.2,30.04,SSE,158,0.0,0.0,85,0.00,CLR,,0.00,WeatherDisplay:10.37,2013-01-11 23:19:00,
2013-01-11 15:24:00,34.9,31.1,30.04,SSE,158,0.0,0.0,86,0.00,CLR,,0.00,WeatherDisplay:10.37,2013-01-11 23:24:00,
2013-01-11 15:29:00,34.7,30.9,30.04,SSE,158,0.0,0.0,86,0.00,CLR,,0.00,WeatherDisplay:10.37,2013-01-11 23:29:00,
2013-01-11 15:34:00,34.5,31.0,30.04,SSE,158,0.0,0.0,87,0.00,CLR,,0.00,WeatherDisplay:10.37,2013-01-11 23:34:00,
2013-01-11 15:39:00,34.3,30.9,30.04,SSE,158,0.0,0.0,87,0.00,CLR,,0.00,WeatherDisplay:10.37,2013-01-11 23:39:00,
2013-01-11 15:44:00,34.2,30.7,30.04,SSE,158,0.0,0.0,87,0.00,CLR,,0.00,WeatherDisplay:10.37,2013-01-11 23:44:00,
2013-01-11 15:49:00,34.0,30.5,30.04,SSE,158,0.0,0.0,87,0.00,CLR,,0.00,WeatherDisplay:10.37,2013-01-11 23:49:00,
2013-01-11 15:54:00,33.6,30.4,30.04,SSE,158,0.0,0.0,88,0.00,CLR,,0.00,WeatherDisplay:10.37,2013-01-11 23:54:00,
2013-01-11 15:59:00,33.4,30.3,30.04,SSE,158,0.0,0.0,88,0.00,CLR,,0.00,WeatherDisplay:10.37,2013-01-11 23:59:00,
2013-01-11 16:04:00,33.1,29.9,30.04,SSE,158,0.0,0.0,88,0.00,CLR,,0.00,WeatherDisplay:10.37,2013-01-12 00:04:00,
2013-01-11 16:09:00,32.7,29.8,30.04,SSE,158,0.0,0.0,89,0.00,CLR,,0.00,WeatherDisplay:10.37,2013-01-12 00:09:00,
2013-01-11 16:14:00,32.4,29.5,30.04,SSE,158,0.0,0.0,89,0.00,CLR,,0.00,WeatherDisplay:10.37,2013-01-12 00:14:00,
2013-01-11 16:19:00,32.2,29.3,30.04,SSE,158,0.0,0.0,89,0.00,CLR,,0.00,WeatherDisplay:10.37,2013-01-12 00:19:00,
2013-01-11 16:24:00,31.6,28.8,30.04,SSE,158,0.0,0.0,89,0.00,CLR,,0.00,WeatherDisplay:10.37,2013-01-12 00:24:00,
2013-01-11 16:29:00,31.3,28.4,30.04,SSE,158,0.0,0.0,89,0.00,CLR,,0.00,WeatherDisplay:10.37,2013-01-12 00:29:00,
2013-01-11 16:34:00,31.1,28.5,30.04,SSE,158,0.0,0.0,90,0.00,CLR,,0.00,WeatherDisplay:10.37,2013-01-12 00:34:00,
2013-01-11 16:39:00,30.7,28.2,30.04,SSE,158,0.0,0.0,90,0.00,CLR,,0.00,WeatherDisplay:10.37,2013-01-12 00:39:00,
2013-01-11 16:44:00,30.4,27.8,30.04,SSE,158,0.0,0.0,90,0.00,CLR,,0.00,WeatherDisplay:10.37,2013-01-12 00:44:00,
2013-01-11 16:49:00,30.2,27.6,30.04,SSE,158,0.0,0.0,90,0.00,CLR,,0.00,WeatherDisplay:10.37,2013-01-12 00:49:00,
2013-01-11 16:54:00,30.0,27.4,30.04,SSE,158,0.0,0.0,90,0.00,CLR,,0.00,WeatherDisplay:10.37,2013-01-12 00:54:00,
2013-01-11 16:59:00,29.8,27.3,30.04,SSE,158,0.0,0.0,90,0.00,CLR,,0.00,WeatherDisplay:10.37,2013-01-12 00:59:00,
2013-01-11 17:04:00,29.7,27.4,30.05,SSE,158,0.0,0.0,91,0.00,CLR,,0.00,WeatherDisplay:10.37,2013-01-12 01:04:00,
2013-01-11 17:09:00,29.5,27.2,30.04,SSE,158,0.0,0.0,91,0.00,CLR,,0.00,WeatherDisplay:10.37,2013-01-12 01:09:00,
2013-01-11 17:14:00,29.1,26.8,30.04,SSE,158,0.0,0.0,91,0.00,CLR,,0.00,WeatherDisplay:10.37,2013-01-12 01:14:00,
2013-01-11 17:19:00,29.1,26.8,30.04,SSE,158,0.0,0.0,91,0.00,CLR,,0.00,WeatherDisplay:10.37,2013-01-12 01:19:00,
2013-01-11 17:24:00,28.9,26.6,30.05,SSE,158,0.0,0.0,91,0.00,CLR,,0.00,WeatherDisplay:10.37,2013-01-12 01:24:00,
2013-01-11 17:29:00,28.8,26.5,30.04,SSE,158,0.0,0.0,91,0.00,CLR,,0.00,WeatherDisplay:10.37,2013-01-12 01:29:00,
2013-01-11 17:34:00,28.6,26.3,30.05,SSE,158,0.0,0.0,91,0.00,CLR,,0.00,WeatherDisplay:10.37,2013-01-12 01:34:00,
2013-01-11 17:39:00,28.6,26.6,30.05,SSE,158,0.0,0.0,92,0.00,CLR,,0.00,WeatherDisplay:10.37,2013-01-12 01:39:00,
2013-01-11 17:44:00,28.2,26.2,30.05,SSE,158,0.0,0.0,92,0.00,CLR,,0.00,WeatherDisplay:10.37,2013-01-12 01:44:00,
2013-01-11 17:49:00,28.2,26.2,30.05,SSE,158,0.0,0.0,92,0.00,CLR,,0.00,WeatherDisplay:10.37,2013-01-12 01:49:00,
2013-01-11 17:54:00,28.0,26.0,30.05,SSE,158,0.0,0.0,92,0.00,CLR,,0.00,WeatherDisplay:10.37,2013-01-12 01:54:00,
2013-01-11 17:59:00,28.0,26.0,30.05,SSE,158,0.0,0.0,92,0.00,CLR,,0.00,WeatherDisplay:10.37,2013-01-12 01:59:00,
2013-01-11 18:04:00,28.0,26.0,30.05,SSE,158,0.0,0.0,92,0.00,CLR,,0.00,WeatherDisplay:10.37,2013-01-12 02:04:00,
2013-01-11 18:09:00,27.7,25.7,30.06,SSE,158,0.0,0.0,92,0.00,CLR,,0.00,WeatherDisplay:10.37,2013-01-12 02:09:00,
2013-01-11 18:14:00,27.7,25.7,30.06,SSE,158,0.0,0.0,92,0.00,CLR,,0.00,WeatherDisplay:10.37,2013-01-12 02:14:00,
2013-01-11 18:19:00,27.5,25.5,30.05,SSE,158,0.0,0.0,92,0.00,CLR,,0.00,WeatherDisplay:10.37,2013-01-12 02:19:00,
2013-01-11 18:24:00,27.3,25.3,30.05,SSE,158,0.0,0.0,92,0.00,CLR,,0.00,WeatherDisplay:10.37,2013-01-12 02:24:00,
2013-01-11 18:29:00,27.3,25.3,30.05,SSE,158,0.0,0.0,92,0.00,CLR,,0.00,WeatherDisplay:10.37,2013-01-12 02:29:00,
2013-01-11 18:34:00,27.3,25.3,30.05,SSE,158,0.0,0.0,92,0.00,CLR,,0.00,WeatherDisplay:10.37,2013-01-12 02:34:00,
2013-01-11 18:39:00,27.1,25.1,30.05,SSE,158,0.0,0.0,92,0.00,CLR,,0.00,WeatherDisplay:10.37,2013-01-12 02:39:00,
2013-01-11 18:44:00,27.1,25.4,30.05,SSE,158,0.0,0.0,93,0.00,CLR,,0.00,WeatherDisplay:10.37,2013-01-12 02:44:00,
2013-01-11 18:49:00,27.1,25.4,30.04,SSE,158,0.0,0.0,93,0.00,CLR,,0.00,WeatherDisplay:10.37,2013-01-12 02:49:00,
2013-01-11 18:54:00,27.0,25.2,30.04,SSE,158,0.0,0.0,93,0.00,CLR,,0.00,WeatherDisplay:10.37,2013-01-12 02:54:00,
2013-01-11 18:59:00,27.0,25.2,30.04,SSE,158,0.0,0.0,93,0.00,CLR,,0.00,WeatherDisplay:10.37,2013-01-12 02:59:00,
2013-01-11 19:04:00,27.0,25.2,30.04,SSE,158,0.0,0.0,93,0.00,CLR,,0.00,WeatherDisplay:10.37,2013-01-12 03:04:00,
2013-01-11 19:09:00,26.8,25.0,30.04,SSE,158,0.0,0.0,93,0.00,CLR,,0.00,WeatherDisplay:10.37,2013-01-12 03:09:00,
2013-01-11 19:14:00,26.8,25.0,30.04,SSE,158,0.0,0.0,93,0.00,CLR,,0.00,WeatherDisplay:10.37,2013-01-12 03:14:00,
2013-01-11 19:19:00,26.8,25.0,30.04,SSE,158,0.0,0.0,93,0.00,CLR,,0.00,WeatherDisplay:10.37,2013-01-12 03:19:00,
2013-01-11 19:24:00,26.6,24.8,30.04,SSE,158,0.0,0.0,93,0.00,CLR,,0.00,WeatherDisplay:10.37,2013-01-12 03:24:00,
2013-01-11 19:29:00,26.6,24.8,30.04,SSE,158,0.0,0.0,93,0.00,CLR,,0.00,WeatherDisplay:10.37,2013-01-12 03:29:00,
2013-01-11 19:34:00,26.4,24.7,30.04,SSE,158,0.0,0.0,93,0.00,CLR,,0.00,WeatherDisplay:10.37,2013-01-12 03:34:00,
2013-01-11 19:39:00,26.4,24.7,30.04,SSE,158,0.0,0.0,93,0.00,CLR,,0.00,WeatherDisplay:10.37,2013-01-12 03:39:00,
2013-01-11 19:44:00,26.4,24.7,30.04,SSE,158,0.0,0.0,93,0.00,CLR,,0.00,WeatherDisplay:10.37,2013-01-12 03:44:00,
2013-01-11 19:49:00,26.4,24.7,30.04,SSE,158,0.0,0.0,93,0.00,CLR,,0.00,WeatherDisplay:10.37,2013-01-12 03:49:00,
2013-01-11 19:54:00,26.4,24.7,30.04,SSE,158,0.0,0.0,93,0.00,CLR,,0.00,WeatherDisplay:10.37,2013-01-12 03:54:00,
2013-01-11 19:59:00,26.2,24.5,30.03,SSE,158,0.0,0.0,93,0.00,CLR,,0.00,WeatherDisplay:10.37,2013-01-12 03:59:00,
2013-01-11 20:04:00,26.4,24.7,30.03,SSE,158,0.0,0.0,93,0.00,CLR,,0.00,WeatherDisplay:10.37,2013-01-12 04:04:00,
2013-01-11 20:09:00,26.2,24.5,30.03,SSE,158,0.0,0.0,93,0.00,CLR,,0.00,WeatherDisplay:10.37,2013-01-12 04:09:00,
2013-01-11 20:15:00,26.2,24.5,30.04,SSE,158,0.0,0.0,93,0.00,CLR,,0.00,WeatherDisplay:10.37,2013-01-12 04:15:00,
2013-01-11 20:21:00,26.2,24.5,30.04,SSE,158,0.0,0.0,93,0.00,CLR,,0.00,WeatherDisplay:10.37,2013-01-12 04:21:00,
2013-01-11 20:26:00,26.2,24.5,30.04,SSE,158,0.0,0.0,93,0.00,CLR,,0.00,WeatherDisplay:10.37,2013-01-12 04:26:00,
2013-01-11 20:31:00,26.2,24.5,30.04,SSE,158,0.0,0.0,93,0.00,CLR,,0.00,WeatherDisplay:10.37,2013-01-12 04:31:00,
2013-01-11 20:37:00,26.2,24.5,30.04,SSE,158,0.0,0.0,93,0.00,CLR,,0.00,WeatherDisplay:10.37,2013-01-12 04:37:00,
2013-01-11 20:42:00,26.1,24.3,30.04,SSE,158,0.0,0.0,93,0.00,CLR,,0.00,WeatherDisplay:10.37,2013-01-12 04:42:00,
2013-01-11 20:47:00,26.1,24.3,30.04,SSE,158,0.0,0.0,93,0.00,CLR,,0.00,WeatherDisplay:10.37,2013-01-12 04:47:00,
2013-01-11 20:53:00,25.9,24.1,30.04,SSE,158,0.0,0.0,93,0.00,CLR,,0.00,WeatherDisplay:10.37,2013-01-12 04:53:00,
2013-01-11 20:58:00,25.9,24.1,30.04,SSE,158,0.0,0.0,93,0.00,CLR,,0.00,WeatherDisplay:10.37,2013-01-12 04:58:00,
2013-01-11 21:01:00,25.9,24.1,30.04,SSE,158,0.0,0.0,93,0.00,CLR,,0.00,WeatherDisplay:10.37,2013-01-12 05:01:00,
2013-01-11 21:02:00,25.9,24.1,30.04,SSE,158,0.0,0.0,93,0.00,CLR,,0.00,WeatherDisplay:10.37,2013-01-12 05:02:00,
2013-01-11 21:05:00,25.9,24.4,30.04,SSE,158,0.0,0.0,94,0.00,CLR,,0.00,WeatherDisplay:10.37,2013-01-12 05:05:00,
2013-01-11 21:10:00,25.9,24.4,30.04,SSE,158,0.0,0.0,94,0.00,CLR,,0.00,WeatherDisplay:10.37,2013-01-12 05:10:00,
2013-01-11 21:13:00,25.9,24.4,30.04,SSE,158,0.0,0.0,94,0.00,CLR,,0.00,WeatherDisplay:10.37,2013-01-12 05:13:00,
2013-01-11 21:18:00,25.9,24.4,30.04,SSE,158,0.0,0.0,94,0.00,CLR,,0.00,WeatherDisplay:10.37,2013-01-12 05:18:00,
2013-01-11 21:23:00,25.9,24.4,30.05,SSE,158,0.0,0.0,94,0.00,CLR,,0.00,WeatherDisplay:10.37,2013-01-12 05:23:00,
2013-01-11 21:28:00,25.9,24.4,30.04,SSE,158,0.0,0.0,94,0.00,CLR,,0.00,WeatherDisplay:10.37,2013-01-12 05:28:00,
2013-01-11 21:33:00,25.9,24.4,30.04,SSE,158,0.0,0.0,94,0.00,CLR,,0.00,WeatherDisplay:10.37,2013-01-12 05:33:00,
2013-01-11 21:38:00,25.7,24.2,30.04,SSE,158,0.0,0.0,94,0.00,CLR,,0.00,WeatherDisplay:10.37,2013-01-12 05:38:00,
2013-01-11 21:43:00,25.7,24.2,30.05,SSE,158,0.0,0.0,94,0.00,CLR,,0.00,WeatherDisplay:10.37,2013-01-12 05:43:00,
2013-01-11 21:48:00,25.5,24.0,30.05,SSE,158,0.0,0.0,94,0.00,CLR,,0.00,WeatherDisplay:10.37,2013-01-12 05:48:00,
2013-01-11 21:53:00,25.5,24.0,30.05,SSE,158,0.0,0.0,94,0.00,CLR,,0.00,WeatherDisplay:10.37,2013-01-12 05:53:00,
2013-01-11 21:58:00,25.5,24.0,30.05,SSE,158,0.0,0.0,94,0.00,CLR,,0.00,WeatherDisplay:10.37,2013-01-12 05:58:00,
2013-01-11 22:03:00,25.3,23.9,30.05,SSE,158,0.0,0.0,94,0.00,CLR,,0.00,WeatherDisplay:10.37,2013-01-12 06:03:00,
2013-01-11 22:08:00,25.3,23.9,30.05,SSE,158,0.0,0.0,94,0.00,CLR,,0.00,WeatherDisplay:10.37,2013-01-12 06:08:00,
2013-01-11 22:13:00,25.2,23.7,30.05,SSE,158,0.0,0.0,94,0.00,CLR,,0.00,WeatherDisplay:10.37,2013-01-12 06:13:00,
2013-01-11 22:19:00,25.2,23.7,30.05,SSE,158,0.0,0.0,94,0.00,CLR,,0.00,WeatherDisplay:10.37,2013-01-12 06:19:00,
2013-01-11 22:24:00,25.0,23.5,30.05,SSE,158,0.0,0.0,94,0.00,CLR,,0.00,WeatherDisplay:10.37,2013-01-12 06:24:00,
2013-01-11 22:29:00,25.0,23.5,30.05,SSE,158,0.0,0.0,94,0.00,CLR,,0.00,WeatherDisplay:10.37,2013-01-12 06:29:00,
2013-01-11 22:35:00,24.6,23.1,30.05,SSE,158,0.0,0.0,94,0.00,CLR,,0.00,WeatherDisplay:10.37,2013-01-12 06:35:00,
2013-01-11 22:41:00,24.6,23.1,30.05,SSE,158,0.0,0.0,94,0.00,CLR,,0.00,WeatherDisplay:10.37,2013-01-12 06:41:00,
2013-01-11 22:47:00,24.6,23.1,30.05,SSE,158,0.0,0.0,94,0.00,CLR,,0.00,WeatherDisplay:10.37,2013-01-12 06:47:00,
2013-01-11 22:52:00,24.4,23.0,30.05,SSE,158,0.0,0.0,94,0.00,CLR,,0.00,WeatherDisplay:10.37,2013-01-12 06:52:00,
2013-01-11 22:57:00,24.4,23.0,30.05,SSE,158,0.0,0.0,94,0.00,CLR,,0.00,WeatherDisplay:10.37,2013-01-12 06:57:00,
2013-01-11 23:02:00,24.4,23.0,30.05,SSE,158,0.0,0.0,94,0.00,CLR,,0.00,WeatherDisplay:10.37,2013-01-12 07:02:00,
2013-01-11 23:07:00,24.3,22.8,30.04,SSE,158,0.0,0.0,94,0.00,CLR,,0.00,WeatherDisplay:10.37,2013-01-12 07:07:00,
2013-01-11 23:12:00,24.1,22.6,30.04,SSE,158,0.0,0.0,94,0.00,CLR,,0.00,WeatherDisplay:10.37,2013-01-12 07:12:00,
2013-01-11 23:17:00,24.1,22.6,30.05,SSE,158,0.0,0.0,94,0.00,CLR,,0.00,WeatherDisplay:10.37,2013-01-12 07:17:00,
2013-01-11 23:22:00,24.1,22.6,30.04,SSE,158,0.0,0.0,94,0.00,CLR,,0.00,WeatherDisplay:10.37,2013-01-12 07:22:00,
2013-01-11 23:27:00,24.1,22.6,30.04,SSE,158,0.0,0.0,94,0.00,CLR,,0.00,WeatherDisplay:10.37,2013-01-12 07:27:00,
2013-01-11 23:32:00,24.1,22.6,30.04,SSE,158,0.0,0.0,94,0.00,CLR,,0.00,WeatherDisplay:10.37,2013-01-12 07:32:00,
2013-01-11 23:37:00,24.1,22.6,30.04,SSE,158,0.0,0.0,94,0.00,CLR,,0.00,WeatherDisplay:10.37,2013-01-12 07:37:00,
2013-01-11 23:42:00,23.9,22.4,30.04,SSE,158,0.0,0.0,94,0.00,CLR,,0.00,WeatherDisplay:10.37,2013-01-12 07:42:00,
2013-01-11 23:47:00,23.9,22.4,30.04,SSE,158,0.0,0.0,94,0.00,CLR,,0.00,WeatherDisplay:10.37,2013-01-12 07:47:00,
2013-01-11 23:52:00,23.9,22.4,30.04,SSE,158,0.0,0.0,94,0.00,CLR,,0.00,WeatherDisplay:10.37,2013-01-12 07:52:00,
2013-01-11 23:57:00,23.9,22.4,30.04,SSE,158,0.0,0.0,94,0.00,CLR,,0.00,WeatherDisplay:10.37,2013-01-12 07:57:00,